sensor_id;sensor_type;location;lat;lon;timestamp;P1;durP1;ratioP1;P2;durP2;ratioP2
81312;SDS011;70780;52.722;5.724;2023-07-20T09:55:53;0.25;;;0.20;;
81312;SDS011;70780;52.722;5.724;2023-07-20T09:58:23;0.95;;;0.22;;
81312;SDS011;70780;52.722;5.724;2023-07-20T10:00:56;0.40;;;0.20;;
81312;SDS011;70780;52.722;5.724;2023-07-20T10:03:29;1.13;;;0.30;;
81312;SDS011;70780;52.722;5.724;2023-07-20T10:06:00;0.60;;;0.30;;
81312;SDS011;70780;52.722;5.724;2023-07-20T10:08:34;0.28;;;0.15;;
81312;SDS011;70780;52.722;5.724;2023-07-20T10:11:10;2.50;;;0.30;;
81312;SDS011;70780;52.722;5.724;2023-07-20T10:13:44;0.68;;;0.35;;
81312;SDS011;70780;52.722;5.724;2023-07-20T10:16:20;1.35;;;0.30;;
81312;SDS011;70780;52.722;5.724;2023-07-20T10:18:56;0.85;;;0.20;;
81312;SDS011;70780;52.722;5.724;2023-07-20T10:21:32;0.40;;;0.20;;
81312;SDS011;70780;52.722;5.724;2023-07-20T10:24:04;1.20;;;0.30;;
81312;SDS011;70780;52.722;5.724;2023-07-20T10:26:36;0.70;;;0.20;;
81312;SDS011;70780;52.722;5.724;2023-07-20T10:29:06;1.88;;;0.40;;
81312;SDS011;70780;52.722;5.724;2023-07-20T10:31:36;0.40;;;0.20;;
81312;SDS011;70780;52.722;5.724;2023-07-20T10:34:06;0.90;;;0.32;;
81312;SDS011;70780;52.722;5.724;2023-07-20T10:36:43;0.32;;;0.22;;
81312;SDS011;70780;52.722;5.724;2023-07-20T10:39:22;0.40;;;0.30;;
81312;SDS011;70780;52.722;5.724;2023-07-20T10:42:02;1.20;;;0.30;;
81312;SDS011;70780;52.722;5.724;2023-07-20T10:44:32;1.58;;;0.40;;
81312;SDS011;70780;52.722;5.724;2023-07-20T10:47:02;1.08;;;0.50;;
81312;SDS011;70780;52.722;5.724;2023-07-20T10:49:57;0.90;;;0.50;;
81312;SDS011;70780;52.722;5.724;2023-07-20T10:52:26;1.20;;;0.30;;
81312;SDS011;70780;52.722;5.724;2023-07-20T10:55:10;0.45;;;0.30;;
81312;SDS011;70780;52.722;5.724;2023-07-20T10:57:45;0.65;;;0.30;;
81312;SDS011;70780;52.722;5.724;2023-07-20T11:03:29;1.65;;;0.30;;
81312;SDS011;70780;52.722;5.724;2023-07-20T11:05:59;1.00;;;0.20;;
81312;SDS011;70780;52.722;5.724;2023-07-20T11:09:04;0.80;;;0.30;;
81312;SDS011;70780;52.722;5.724;2023-07-20T11:11:37;0.95;;;0.40;;
81312;SDS011;70780;52.722;5.724;2023-07-20T11:14:10;1.92;;;0.73;;
81312;SDS011;70780;52.722;5.724;2023-07-20T11:16:49;1.60;;;0.52;;
81312;SDS011;70780;52.722;5.724;2023-07-20T11:19:19;1.50;;;0.40;;
81312;SDS011;70780;52.722;5.724;2023-07-20T11:21:50;0.80;;;0.40;;
81312;SDS011;70780;52.722;5.724;2023-07-20T11:24:20;2.47;;;0.60;;
81312;SDS011;70780;52.722;5.724;2023-07-20T11:26:50;1.23;;;0.25;;
81312;SDS011;70780;52.722;5.724;2023-07-20T11:29:23;0.75;;;0.40;;
81312;SDS011;70780;52.722;5.724;2023-07-20T11:31:53;1.42;;;0.70;;
81312;SDS011;70780;52.722;5.724;2023-07-20T11:34:22;1.35;;;0.60;;
81312;SDS011;70780;52.722;5.724;2023-07-20T11:36:53;1.00;;;0.43;;
81312;SDS011;70780;52.722;5.724;2023-07-20T11:39:22;0.70;;;0.38;;
81312;SDS011;70780;52.722;5.724;2023-07-20T11:41:52;1.63;;;0.50;;
81312;SDS011;70780;52.722;5.724;2023-07-20T11:44:26;1.23;;;0.28;;
81312;SDS011;70780;52.722;5.724;2023-07-20T11:47:00;1.35;;;0.55;;
81312;SDS011;70780;52.722;5.724;2023-07-20T11:49:30;1.73;;;0.30;;
81312;SDS011;70780;52.722;5.724;2023-07-20T11:52:03;1.50;;;0.50;;
81312;SDS011;70780;52.722;5.724;2023-07-20T11:54:33;0.82;;;0.30;;
81312;SDS011;70780;52.722;5.724;2023-07-20T11:57:03;0.70;;;0.57;;
81312;SDS011;70780;52.722;5.724;2023-07-20T11:59:36;1.48;;;0.30;;
81312;SDS011;70780;52.722;5.724;2023-07-20T12:02:05;1.05;;;0.30;;
81312;SDS011;70780;52.722;5.724;2023-07-20T12:04:35;1.35;;;0.30;;
81312;SDS011;70780;52.722;5.724;2023-07-20T12:07:04;1.85;;;0.40;;
81312;SDS011;70780;52.722;5.724;2023-07-20T12:09:36;1.25;;;0.35;;
81312;SDS011;70780;52.722;5.724;2023-07-20T12:12:09;1.73;;;0.40;;
81312;SDS011;70780;52.722;5.724;2023-07-20T12:14:42;0.75;;;0.22;;
81312;SDS011;70780;52.722;5.724;2023-07-20T12:17:11;0.85;;;0.50;;
81312;SDS011;70780;52.722;5.724;2023-07-20T12:19:42;1.75;;;0.38;;
81312;SDS011;70780;52.722;5.724;2023-07-20T12:22:11;0.55;;;0.22;;
81312;SDS011;70780;52.722;5.724;2023-07-20T12:24:41;1.45;;;0.52;;
81312;SDS011;70780;52.722;5.724;2023-07-20T12:27:13;0.45;;;0.30;;
81312;SDS011;70780;52.722;5.724;2023-07-20T12:29:45;1.00;;;0.40;;
81312;SDS011;70780;52.722;5.724;2023-07-20T12:32:15;0.60;;;0.30;;
81312;SDS011;70780;52.722;5.724;2023-07-20T12:34:44;0.60;;;0.40;;
81312;SDS011;70780;52.722;5.724;2023-07-20T12:37:13;0.75;;;0.35;;
81312;SDS011;70780;52.722;5.724;2023-07-20T12:42:15;0.57;;;0.28;;
81312;SDS011;70780;52.722;5.724;2023-07-20T12:44:47;0.88;;;0.40;;
81312;SDS011;70780;52.722;5.724;2023-07-20T12:47:17;1.48;;;0.40;;
81312;SDS011;70780;52.722;5.724;2023-07-20T12:49:47;0.70;;;0.32;;
81312;SDS011;70780;52.722;5.724;2023-07-20T12:52:16;1.27;;;0.30;;
81312;SDS011;70780;52.722;5.724;2023-07-20T12:54:45;1.50;;;0.50;;
81312;SDS011;70780;52.722;5.724;2023-07-20T12:57:15;1.85;;;1.13;;
81312;SDS011;70780;52.722;5.724;2023-07-20T12:59:46;0.60;;;0.35;;
81312;SDS011;70780;52.722;5.724;2023-07-20T13:02:16;0.57;;;0.30;;
81312;SDS011;70780;52.722;5.724;2023-07-20T13:04:45;0.40;;;0.30;;
81312;SDS011;70780;52.722;5.724;2023-07-20T13:07:14;1.23;;;0.32;;
81312;SDS011;70780;52.722;5.724;2023-07-20T13:09:44;0.80;;;0.30;;
81312;SDS011;70780;52.722;5.724;2023-07-20T16:23:38;1.20;;;0.20;;
81312;SDS011;70780;52.722;5.724;2023-07-20T16:26:08;0.43;;;0.17;;
81312;SDS011;70780;52.722;5.724;2023-07-20T16:28:37;0.40;;;0.20;;
81312;SDS011;70780;52.722;5.724;2023-07-20T16:31:09;0.52;;;0.30;;
81312;SDS011;70780;52.722;5.724;2023-07-20T16:36:08;0.60;;;0.22;;
81312;SDS011;70780;52.722;5.724;2023-07-20T16:38:41;0.75;;;0.20;;
81312;SDS011;70780;52.722;5.724;2023-07-20T16:41:11;0.70;;;0.30;;
81312;SDS011;70780;52.722;5.724;2023-07-20T16:43:40;0.65;;;0.30;;
81312;SDS011;70780;52.722;5.724;2023-07-20T16:46:09;0.50;;;0.20;;
81312;SDS011;70780;52.722;5.724;2023-07-20T16:48:39;0.30;;;0.20;;
81312;SDS011;70780;52.722;5.724;2023-07-20T16:51:09;0.88;;;0.43;;
81312;SDS011;70780;52.722;5.724;2023-07-20T16:53:41;0.70;;;0.38;;
81312;SDS011;70780;52.722;5.724;2023-07-20T16:56:10;1.75;;;0.40;;
81312;SDS011;70780;52.722;5.724;2023-07-20T16:58:39;0.30;;;0.20;;
81312;SDS011;70780;52.722;5.724;2023-07-20T17:01:09;0.43;;;0.30;;
81312;SDS011;70780;52.722;5.724;2023-07-20T17:03:39;0.95;;;0.30;;
81312;SDS011;70780;52.722;5.724;2023-07-20T17:06:09;0.65;;;0.20;;
81312;SDS011;70780;52.722;5.724;2023-07-20T17:08:41;0.70;;;0.30;;
81312;SDS011;70780;52.722;5.724;2023-07-20T17:11:10;1.02;;;0.30;;
81312;SDS011;70780;52.722;5.724;2023-07-20T17:13:40;0.70;;;0.30;;
81312;SDS011;70780;52.722;5.724;2023-07-20T17:16:09;0.90;;;0.40;;
81312;SDS011;70780;52.722;5.724;2023-07-20T17:18:38;0.40;;;0.30;;
81312;SDS011;70780;52.722;5.724;2023-07-20T17:21:08;1.90;;;0.50;;
81312;SDS011;70780;52.722;5.724;2023-07-20T17:23:37;0.80;;;0.35;;
81312;SDS011;70780;52.722;5.724;2023-07-20T17:26:09;0.63;;;0.30;;
81312;SDS011;70780;52.722;5.724;2023-07-20T17:28:40;1.65;;;0.40;;
81312;SDS011;70780;52.722;5.724;2023-07-20T17:31:09;0.50;;;0.35;;
81312;SDS011;70780;52.722;5.724;2023-07-20T17:33:38;0.60;;;0.38;;
81312;SDS011;70780;52.722;5.724;2023-07-20T17:36:08;0.85;;;0.47;;
81312;SDS011;70780;52.722;5.724;2023-07-20T17:38:37;1.35;;;0.50;;
81312;SDS011;70780;52.722;5.724;2023-07-20T17:41:09;0.88;;;0.47;;
81312;SDS011;70780;52.722;5.724;2023-07-20T17:43:38;1.67;;;0.40;;
81312;SDS011;70780;52.722;5.724;2023-07-20T17:46:08;1.60;;;0.40;;
81312;SDS011;70780;52.722;5.724;2023-07-20T17:48:37;0.95;;;0.43;;
81312;SDS011;70780;52.722;5.724;2023-07-20T17:51:06;0.77;;;0.40;;
81312;SDS011;70780;52.722;5.724;2023-07-20T17:53:36;1.55;;;0.40;;
81312;SDS011;70780;52.722;5.724;2023-07-20T17:56:05;1.00;;;0.47;;
81312;SDS011;70780;52.722;5.724;2023-07-20T17:58:37;0.88;;;0.40;;
81312;SDS011;70780;52.722;5.724;2023-07-20T18:01:06;1.33;;;0.50;;
81312;SDS011;70780;52.722;5.724;2023-07-20T18:03:36;0.70;;;0.40;;
81312;SDS011;70780;52.722;5.724;2023-07-20T18:06:05;1.27;;;0.57;;
81312;SDS011;70780;52.722;5.724;2023-07-20T18:08:35;1.85;;;0.70;;
81312;SDS011;70780;52.722;5.724;2023-07-20T18:11:07;0.98;;;0.50;;
81312;SDS011;70780;52.722;5.724;2023-07-20T18:13:39;2.67;;;0.57;;
81312;SDS011;70780;52.722;5.724;2023-07-20T18:16:08;1.35;;;0.63;;
81312;SDS011;70780;52.722;5.724;2023-07-20T18:18:37;1.05;;;0.40;;
81312;SDS011;70780;52.722;5.724;2023-07-20T18:21:07;3.50;;;0.40;;
81312;SDS011;70780;52.722;5.724;2023-07-20T18:23:36;1.42;;;0.60;;
81312;SDS011;70780;52.722;5.724;2023-07-20T18:26:08;0.70;;;0.43;;
81312;SDS011;70780;52.722;5.724;2023-07-20T18:28:40;1.55;;;0.50;;
81312;SDS011;70780;52.722;5.724;2023-07-20T18:31:10;1.00;;;0.45;;
81312;SDS011;70780;52.722;5.724;2023-07-20T18:33:39;0.82;;;0.40;;
81312;SDS011;70780;52.722;5.724;2023-07-20T18:36:08;0.80;;;0.40;;
81312;SDS011;70780;52.722;5.724;2023-07-20T18:38:38;0.80;;;0.40;;
81312;SDS011;70780;52.722;5.724;2023-07-20T18:41:07;0.75;;;0.45;;
81312;SDS011;70780;52.722;5.724;2023-07-20T18:43:40;0.90;;;0.40;;
81312;SDS011;70780;52.722;5.724;2023-07-20T18:46:10;0.93;;;0.45;;
81312;SDS011;70780;52.722;5.724;2023-07-20T18:48:39;1.70;;;0.50;;
81312;SDS011;70780;52.722;5.724;2023-07-20T18:51:08;0.90;;;0.32;;
81312;SDS011;70780;52.722;5.724;2023-07-20T18:53:38;0.70;;;0.30;;
81312;SDS011;70780;52.722;5.724;2023-07-20T18:56:07;1.27;;;0.38;;
81312;SDS011;70780;52.722;5.724;2023-07-20T18:58:36;0.50;;;0.25;;
81312;SDS011;70780;52.722;5.724;2023-07-20T19:01:09;1.17;;;0.38;;
81312;SDS011;70780;52.722;5.724;2023-07-20T19:03:39;0.60;;;0.40;;
81312;SDS011;70780;52.722;5.724;2023-07-20T19:06:09;1.35;;;0.30;;
81312;SDS011;70780;52.722;5.724;2023-07-20T19:08:39;1.27;;;0.63;;
81312;SDS011;70780;52.722;5.724;2023-07-20T19:11:09;1.25;;;0.40;;
81312;SDS011;70780;52.722;5.724;2023-07-20T19:13:39;0.82;;;0.30;;
81312;SDS011;70780;52.722;5.724;2023-07-20T19:16:11;0.80;;;0.40;;
81312;SDS011;70780;52.722;5.724;2023-07-20T19:18:40;1.58;;;0.50;;
81312;SDS011;70780;52.722;5.724;2023-07-20T19:21:09;1.25;;;0.47;;
81312;SDS011;70780;52.722;5.724;2023-07-20T19:23:40;1.65;;;0.68;;
81312;SDS011;70780;52.722;5.724;2023-07-20T19:26:10;0.85;;;0.45;;
81312;SDS011;70780;52.722;5.724;2023-07-20T19:28:39;0.82;;;0.40;;
81312;SDS011;70780;52.722;5.724;2023-07-20T19:31:11;0.95;;;0.50;;
81312;SDS011;70780;52.722;5.724;2023-07-20T19:33:40;1.30;;;0.40;;
81312;SDS011;70780;52.722;5.724;2023-07-20T19:36:09;0.60;;;0.35;;
81312;SDS011;70780;52.722;5.724;2023-07-20T19:38:39;1.60;;;0.65;;
81312;SDS011;70780;52.722;5.724;2023-07-20T19:41:08;2.25;;;0.60;;
81312;SDS011;70780;52.722;5.724;2023-07-20T19:43:37;1.00;;;0.70;;
81312;SDS011;70780;52.722;5.724;2023-07-20T19:46:11;1.95;;;0.70;;
81312;SDS011;70780;52.722;5.724;2023-07-20T19:48:41;2.58;;;1.10;;
81312;SDS011;70780;52.722;5.724;2023-07-20T19:51:10;1.70;;;1.00;;
81312;SDS011;70780;52.722;5.724;2023-07-20T19:53:39;1.60;;;1.10;;
81312;SDS011;70780;52.722;5.724;2023-07-20T19:56:09;2.65;;;1.17;;
81312;SDS011;70780;52.722;5.724;2023-07-20T19:58:38;2.17;;;1.17;;
81312;SDS011;70780;52.722;5.724;2023-07-20T20:01:07;3.25;;;1.20;;
81312;SDS011;70780;52.722;5.724;2023-07-20T20:03:39;2.00;;;1.23;;
81312;SDS011;70780;52.722;5.724;2023-07-20T20:06:09;2.03;;;1.08;;
81312;SDS011;70780;52.722;5.724;2023-07-20T20:08:38;3.47;;;1.50;;
81312;SDS011;70780;52.722;5.724;2023-07-20T20:11:07;2.58;;;1.17;;
81312;SDS011;70780;52.722;5.724;2023-07-20T20:13:37;2.60;;;1.13;;
81312;SDS011;70780;52.722;5.724;2023-07-20T20:16:06;1.90;;;1.23;;
81312;SDS011;70780;52.722;5.724;2023-07-20T20:18:39;1.75;;;1.15;;
81312;SDS011;70780;52.722;5.724;2023-07-20T20:21:09;2.28;;;1.13;;
81312;SDS011;70780;52.722;5.724;2023-07-20T21:41:40;1.55;;;0.70;;
81312;SDS011;70780;52.722;5.724;2023-07-20T21:44:09;0.93;;;0.70;;
81312;SDS011;70780;52.722;5.724;2023-07-20T21:46:38;0.65;;;0.43;;
81312;SDS011;70780;52.722;5.724;2023-07-20T21:49:08;1.02;;;0.60;;
81312;SDS011;70780;52.722;5.724;2023-07-20T21:51:37;0.75;;;0.60;;
81312;SDS011;70780;52.722;5.724;2023-07-20T21:54:07;1.10;;;0.70;;
81312;SDS011;70780;52.722;5.724;2023-07-20T21:56:36;1.60;;;0.60;;
81312;SDS011;70780;52.722;5.724;2023-07-20T21:59:08;1.67;;;0.70;;
81312;SDS011;70780;52.722;5.724;2023-07-20T22:01:37;1.13;;;0.63;;
81312;SDS011;70780;52.722;5.724;2023-07-20T22:04:06;1.98;;;0.80;;
81312;SDS011;70780;52.722;5.724;2023-07-20T22:06:36;1.13;;;0.60;;
81312;SDS011;70780;52.722;5.724;2023-07-20T22:09:10;1.70;;;0.60;;
81312;SDS011;70780;52.722;5.724;2023-07-20T22:11:39;3.53;;;0.60;;
81312;SDS011;70780;52.722;5.724;2023-07-20T22:14:11;1.75;;;0.60;;
81312;SDS011;70780;52.722;5.724;2023-07-20T22:16:42;0.70;;;0.30;;
81312;SDS011;70780;52.722;5.724;2023-07-20T22:19:11;1.58;;;0.60;;
81312;SDS011;70780;52.722;5.724;2023-07-20T22:21:45;2.55;;;0.60;;
